Etusivu
METAR-TAF:

METAR-TAF

Lentoasemat :

Utti, Suomi

Utin lentoasema

Leveyspiiri: 60-54N, Pituuspiiri: 026-56E, korkeus merenpinnasta: 100 m

Tämänhetkinen sää

Tämä raportti tehtiin 31 minuuttia sitten, kello 20.20 UTC
Tuuli 6 kn pohjoisen/luoteesta, vaihdellen luoteen ja pohjoisen välillä
Lämpötila 11°C
Kosteus 35%
Ilmanpaine 1016 hPa
Näkyvyys 10 km tai enemmän
ei pilviä alle 1500 m:ssä eikä cumulonimbus-pilviä

METAR: EFUT 262020Z AUTO 34006KT 310V010 CAVOK 11/M04 Q1016

Aika: 23:51 (20:51 UTC)

Sääennuste

Tämä raportti tehtiin 6 tuntia ja 19 minuuttia sitten, kello 14.32 UTC
Ennuste voimassa 26. päivästä klo 15 UTC - 26. päivään klo 18 UTC
Tuuli 10 kn pohjoisen/luoteesta
Näkyvyys 10 km tai enemmän
ei pilviä alle 1500 m:ssä eikä cumulonimbus-pilviä

TAF: EFUT 261432Z 2615/2618 33010KT CAVOK

Säähavainnot ja -ennusteet yli 4000 lentoasemalta (METAR- ja TAF-raportit).

Käytössä olevat sääasemat on merkitty karttaan keltaisilla ja punaisilla pisteillä.

Aseta hiiri pisteen päälle nähdäksesi sääaseman nimen.

Klikkaa sitten nähdäksesi säähavainnot ja -ennusteet.

Kartan vaihtaminen: klikkaa mustalla rastilla varustettuja vihreitä pisteitä, niin voit zoomata sisään; viivalla varustettua vihreää pistettä, niin voit zoomata ulos tai vihreitä nuolia, niin pääset viereisille kartoille.


METAR-TAF: